Gore Bay Manitoulin Airport
CYZE : now visible

Airfield :











YOU CAN JOIN US ON...

 
LOGIN :

Register | Disclaimer

   EN    FR    IT 

 









Legend :    VFR   Marginal VFR   IFR   Intensive IFR   Very Intensive IFR
Visi :
Ceiling :
>= 8 km
>= 3000ft
5 to 8 km
1000 to 3000 ft
1500m to 5 km
500 to 1000 ft
800 to 1500m
200 to 500 ft
< 800m
< 200 ft
Symbols :   Thunderstorms  Fog  Heavy snow  Heavy precipitations  Wind > 20 kt






- Airport Elevation : 635 ft
- IATA code : YZE


CYZE - Gore Bay Manitoulin

CURRENT METAR :
  • 030700Z AUTO VRB02KT 9SM CLR 11/08 A3007 RMK SLP188

EXPIRED METARs :
  • 030600Z AUTO 31007G15KT 9SM CLR 13/09 A3006 RMK SLP183
  • 030500Z AUTO 32010G18KT 9SM CLR 13/09 A3004 RMK SLP177
  • 030440Z AUTO 31014G19KT 9SM CLR 14/09 A3004 RMK SLP178

Expired Forecast.
CZYZ FIR / North America



MET'MAP, your aeronautical weather chart ! - Copyright ORBIFLY December 2007 - Disclaimer

ORBIFLY MET'MAP TEAM :

Programming & Development : Alexandra Zaïnal
Original concept : Baudouin d'Aumeries
Technical & hardware support : Manuel Goepfert
Assistance : Marc-Olivier Méhu




SOURCES & CREDITS :

   NOAA       Earth
Advisory